Terminal Aerodrome Forecast
Issued by NWS

Home | Current Version | Previous Version | Text Only | Print | Product List | Glossary On
Versions: 1 2 3 4 5 6 7 8 9 10 11 12 13 14 15 16 17 18 19 20 21 22 23 24 25 26 27 28 29 30 31 32 33
000
FTAK31 PAFA 042320
TAFAOM
TAF
PAOM 042320Z 0500/0524 26008KT P6SM FEW030 FEW060 BKN160
     FM050300 12006KT P6SM VCSH SCT025 BKN035 OVC050
     FM050600 09005KT 6SM -RA BR SCT015 OVC025
     FM052000 09006KT P6SM OVC050=

USA.gov is the U.S. government's official web portal to all federal, state and local government web resources and services.